createdAt,value
2023-05-02T00:01:27.258Z,8.93
2023-05-02T00:03:57.152Z,8.85
2023-05-02T00:06:31.293Z,7.50
2023-05-02T00:08:59.924Z,8.63
2023-05-02T00:11:31.749Z,8.55
2023-05-02T00:14:00.131Z,8.48
2023-05-02T00:16:30.922Z,10.05
2023-05-02T00:19:00.801Z,10.27
2023-05-02T00:21:30.068Z,11.27
2023-05-02T00:24:01.201Z,9.73
2023-05-02T00:26:29.933Z,9.77
2023-05-02T00:29:00.976Z,10.48
2023-05-02T00:31:31.760Z,9.55
2023-05-02T00:34:05.003Z,9.88
2023-05-02T00:36:33.448Z,8.70
2023-05-02T00:39:04.246Z,8.10
2023-05-02T00:41:32.505Z,6.57
2023-05-02T00:44:02.044Z,6.55
2023-05-02T00:46:31.346Z,4.88
2023-05-02T00:49:04.436Z,3.83
2023-05-02T00:51:36.981Z,4.60
2023-05-02T00:54:08.095Z,3.58
2023-05-02T00:56:36.919Z,3.35
2023-05-02T00:59:06.056Z,3.28
2023-05-02T01:01:45.595Z,3.67
2023-05-02T01:04:22.476Z,3.28
2023-05-02T01:06:55.651Z,3.83
2023-05-02T01:09:31.502Z,3.35
2023-05-02T01:12:04.758Z,3.05
2023-05-02T01:14:37.836Z,3.40
2023-05-02T01:17:07.235Z,2.50
2023-05-02T01:19:39.968Z,3.03
2023-05-02T01:22:09.996Z,2.95
2023-05-02T01:24:40.673Z,2.75
2023-05-02T01:27:15.804Z,2.65
2023-05-02T01:29:47.421Z,2.13
2023-05-02T01:32:16.923Z,2.58
2023-05-02T01:34:46.498Z,2.15
2023-05-02T01:37:17.660Z,2.22
2023-05-02T01:39:46.327Z,2.03
2023-05-02T01:42:15.631Z,2.33
2023-05-02T01:44:49.341Z,2.10
2023-05-02T01:47:18.484Z,2.40
2023-05-02T01:49:48.267Z,3.05
2023-05-02T01:52:22.569Z,2.63
2023-05-02T01:54:52.697Z,2.70
2023-05-02T01:57:23.551Z,2.90
2023-05-02T01:59:54.501Z,3.08
2023-05-02T02:02:23.151Z,3.63
2023-05-02T02:04:52.052Z,3.88
2023-05-02T02:07:22.817Z,3.95
2023-05-02T02:09:51.300Z,3.30
2023-05-02T02:12:31.978Z,2.47
2023-05-02T02:15:15.325Z,2.17
2023-05-02T02:17:45.079Z,2.60
2023-05-02T02:20:15.078Z,3.13
2023-05-02T02:22:45.011Z,2.30
2023-05-02T02:25:15.115Z,2.53
2023-05-02T02:27:43.929Z,2.30
2023-05-02T02:30:13.788Z,2.20
2023-05-02T02:32:42.161Z,1.77
2023-05-02T02:35:11.208Z,2.70
2023-05-02T02:37:48.454Z,1.13
2023-05-02T02:40:23.544Z,1.55
2023-05-02T02:42:56.487Z,1.88
2023-05-02T02:45:32.099Z,0.90
2023-05-02T02:48:04.927Z,0.70
2023-05-02T02:50:36.534Z,0.73
2023-05-02T02:53:07.230Z,0.90
2023-05-02T02:55:40.281Z,1.52
2023-05-02T02:58:13.028Z,0.60
2023-05-02T03:00:43.104Z,0.80
2023-05-02T03:03:15.940Z,0.70
2023-05-02T03:05:44.805Z,1.42
2023-05-02T03:08:20.540Z,0.85
2023-05-02T03:10:48.868Z,1.55
2023-05-02T03:13:18.167Z,0.77
2023-05-02T03:16:02.341Z,1.23
2023-05-02T03:18:33.819Z,1.00
2023-05-02T03:21:07.147Z,1.33
2023-05-02T03:23:36.451Z,1.02
2023-05-02T03:26:04.844Z,1.02
2023-05-02T03:28:35.647Z,1.05
2023-05-02T03:31:05.452Z,1.17
2023-05-02T03:33:39.316Z,1.35
2023-05-02T03:36:08.134Z,1.25
2023-05-02T03:38:36.490Z,1.42
2023-05-02T03:41:08.780Z,1.58
2023-05-02T03:43:37.706Z,1.58
2023-05-02T03:46:07.777Z,1.20
2023-05-02T03:48:40.171Z,1.27
2023-05-02T03:51:09.940Z,1.30
2023-05-02T03:53:46.100Z,1.33
2023-05-02T03:56:14.525Z,1.38
2023-05-02T03:58:53.138Z,2.00
2023-05-02T04:01:32.647Z,1.20
2023-05-02T04:04:03.950Z,2.08
2023-05-02T04:06:39.635Z,1.70
2023-05-02T04:09:12.570Z,1.60
2023-05-02T04:11:48.024Z,1.25
2023-05-02T04:14:18.823Z,1.20
2023-05-02T04:16:50.792Z,1.00
2023-05-02T04:19:28.607Z,1.25
2023-05-02T04:22:01.964Z,1.15
2023-05-02T04:24:31.086Z,0.98
2023-05-02T04:27:02.810Z,1.77
2023-05-02T04:29:34.203Z,1.10
2023-05-02T04:32:07.775Z,1.27
2023-05-02T04:34:37.738Z,0.95
2023-05-02T04:37:06.323Z,1.20
2023-05-02T04:39:35.711Z,1.10
2023-05-02T04:42:08.368Z,1.92
2023-05-02T04:44:46.200Z,1.23
2023-05-02T04:47:20.259Z,1.20
2023-05-02T04:49:49.944Z,1.80
2023-05-02T04:52:18.580Z,1.02
2023-05-02T04:54:47.246Z,1.10
2023-05-02T04:57:16.214Z,1.38
2023-05-02T04:59:49.068Z,1.73
2023-05-02T05:02:17.574Z,1.50
2023-05-02T05:04:48.256Z,1.40
2023-05-02T05:07:19.313Z,1.25
2023-05-02T05:09:53.563Z,1.38
2023-05-02T05:12:30.978Z,1.58
2023-05-02T05:14:59.991Z,2.05
2023-05-02T05:17:37.860Z,2.95
2023-05-02T05:20:08.939Z,1.88
2023-05-02T05:22:41.864Z,1.67
2023-05-02T05:25:12.300Z,1.88
2023-05-02T05:27:41.348Z,1.80
2023-05-02T05:30:11.810Z,1.52
2023-05-02T05:32:43.762Z,1.98
2023-05-02T05:35:13.212Z,1.92
2023-05-02T05:37:46.034Z,2.13
2023-05-02T05:40:17.888Z,1.83
2023-05-02T05:42:53.710Z,1.75
2023-05-02T05:45:28.006Z,1.48
2023-05-02T05:47:56.968Z,2.15
2023-05-02T05:50:32.508Z,1.67
2023-05-02T05:53:02.329Z,1.92
2023-05-02T05:55:33.347Z,1.42
2023-05-02T05:58:06.234Z,2.22
2023-05-02T06:00:41.825Z,1.90
2023-05-02T06:03:10.364Z,2.25
2023-05-02T06:05:39.693Z,1.52
2023-05-02T06:08:10.472Z,1.98
2023-05-02T06:10:38.949Z,1.65
2023-05-02T06:13:07.332Z,1.95
2023-05-02T06:15:38.829Z,2.13
2023-05-02T06:18:08.435Z,1.58
2023-05-02T06:20:39.756Z,1.50
2023-05-02T06:23:10.515Z,3.83
2023-05-02T06:25:40.690Z,1.60
2023-05-02T06:28:11.505Z,1.70
2023-05-02T06:30:40.004Z,1.35
2023-05-02T06:33:08.399Z,1.38
2023-05-02T06:35:36.872Z,1.90
2023-05-02T06:38:05.160Z,1.75
2023-05-02T06:40:33.723Z,1.83
2023-05-02T06:43:05.822Z,1.35
2023-05-02T06:45:34.179Z,1.52
2023-05-02T06:48:02.454Z,1.67
2023-05-02T06:50:31.242Z,1.83
2023-05-02T06:52:59.880Z,1.33
2023-05-02T06:55:31.171Z,1.10
2023-05-02T06:57:59.821Z,1.05
2023-05-02T07:00:32.438Z,1.23
2023-05-02T07:03:00.970Z,1.67
2023-05-02T07:05:32.094Z,2.30
2023-05-02T07:08:01.014Z,2.22
2023-05-02T07:10:33.666Z,2.40
2023-05-02T07:13:02.084Z,1.38
2023-05-02T07:15:31.901Z,1.83
2023-05-02T07:18:00.792Z,1.80
2023-05-02T07:20:29.939Z,1.90
2023-05-02T07:22:58.808Z,1.42
2023-05-02T07:25:30.039Z,1.55
2023-05-02T07:27:58.882Z,1.50
2023-05-02T07:30:29.795Z,1.33
2023-05-02T07:33:01.973Z,2.25
2023-05-02T07:35:35.208Z,2.25
2023-05-02T07:38:03.561Z,1.50
2023-05-02T07:40:38.844Z,1.52
2023-05-02T07:43:11.168Z,1.42
2023-05-02T07:45:39.921Z,1.63
2023-05-02T07:48:09.574Z,1.60
2023-05-02T07:50:45.430Z,1.52
2023-05-02T07:53:14.424Z,1.60
2023-05-02T07:55:42.839Z,1.88
2023-05-02T07:58:11.316Z,1.35
2023-05-02T08:00:39.671Z,1.20
2023-05-02T08:03:12.906Z,1.25
2023-05-02T08:05:45.382Z,1.98
2023-05-02T08:08:13.778Z,1.20
2023-05-02T08:10:42.065Z,0.93
2023-05-02T08:13:10.636Z,1.02
2023-05-02T08:15:39.109Z,1.17
2023-05-02T08:18:12.362Z,0.95
2023-05-02T08:20:40.802Z,1.55
2023-05-02T08:23:12.667Z,1.10
2023-05-02T08:25:50.533Z,1.30
2023-05-02T08:28:19.831Z,0.98
2023-05-02T08:30:49.039Z,1.33
2023-05-02T08:33:17.603Z,0.90
2023-05-02T08:35:46.081Z,0.88
2023-05-02T08:38:15.834Z,0.95
2023-05-02T08:40:44.301Z,1.20
2023-05-02T08:43:15.605Z,0.80
2023-05-02T08:45:45.545Z,1.08
2023-05-02T08:48:16.805Z,1.00
2023-05-02T08:50:48.388Z,1.05
2023-05-02T08:53:21.679Z,1.10
2023-05-02T08:55:53.303Z,1.20
2023-05-02T08:58:21.594Z,1.20
2023-05-02T09:00:52.907Z,1.08
2023-05-02T09:03:25.693Z,0.93
2023-05-02T09:05:59.084Z,1.60
2023-05-02T09:08:28.822Z,1.00
2023-05-02T09:10:57.324Z,1.20
2023-05-02T09:13:32.798Z,0.88
2023-05-02T09:16:04.133Z,1.27
2023-05-02T09:18:33.583Z,1.30
2023-05-02T09:21:02.244Z,1.00
2023-05-02T09:23:38.833Z,1.17
2023-05-02T09:26:19.915Z,1.20
2023-05-02T09:28:49.013Z,0.82
2023-05-02T09:31:27.015Z,1.02
2023-05-02T09:34:10.640Z,1.58
2023-05-02T09:36:41.198Z,1.30
2023-05-02T09:39:16.948Z,0.80
2023-05-02T09:41:46.561Z,1.08
2023-05-02T09:44:20.383Z,0.80
2023-05-02T09:46:49.559Z,0.98
2023-05-02T09:49:20.085Z,1.33
2023-05-02T09:51:48.782Z,1.02
2023-05-02T09:54:36.430Z,1.25
2023-05-02T09:57:07.043Z,1.10
2023-05-02T09:59:37.802Z,1.05
2023-05-02T10:02:11.094Z,1.20
2023-05-02T10:04:42.988Z,1.05
2023-05-02T10:07:12.228Z,0.90
2023-05-02T10:09:44.978Z,1.33
2023-05-02T10:12:16.907Z,0.80
2023-05-02T10:14:59.937Z,1.10
2023-05-02T10:17:30.117Z,1.13
2023-05-02T10:19:59.838Z,1.00
2023-05-02T10:22:28.718Z,1.50
2023-05-02T10:25:02.460Z,1.45
2023-05-02T10:27:32.184Z,1.10
2023-05-02T10:30:01.217Z,1.02
2023-05-02T10:32:30.041Z,1.10
2023-05-02T10:34:59.011Z,1.40
2023-05-02T10:37:28.629Z,0.90
2023-05-02T10:39:58.704Z,1.40
2023-05-02T10:42:27.623Z,1.38
2023-05-02T10:44:56.060Z,1.50
2023-05-02T10:47:28.092Z,1.23
2023-05-02T10:49:57.512Z,1.25
2023-05-02T10:52:30.164Z,1.95
2023-05-02T10:55:21.432Z,2.28
2023-05-02T10:58:10.938Z,1.10
2023-05-02T11:00:41.777Z,1.30
2023-05-02T11:03:12.407Z,1.65
2023-05-02T11:05:55.589Z,1.30
2023-05-02T11:08:33.307Z,1.10
2023-05-02T11:11:18.890Z,1.33
2023-05-02T11:13:52.486Z,1.30
2023-05-02T11:16:20.953Z,1.58
2023-05-02T11:19:02.267Z,1.52
2023-05-02T11:21:32.785Z,1.83
2023-05-02T11:24:22.288Z,1.83
2023-05-02T11:26:51.456Z,1.30
2023-05-02T11:29:34.610Z,1.38
2023-05-02T11:32:04.930Z,1.42
2023-05-02T11:34:48.290Z,1.42
2023-05-02T11:37:16.943Z,1.30
2023-05-02T11:39:55.037Z,1.52
2023-05-02T11:42:30.770Z,1.42
2023-05-02T11:45:00.137Z,1.67
2023-05-02T11:47:35.149Z,1.50
2023-05-02T11:50:06.251Z,1.23
2023-05-02T11:52:41.522Z,1.92
2023-05-02T11:55:23.749Z,1.45
2023-05-02T11:57:52.059Z,2.17
2023-05-02T12:00:20.906Z,1.42
2023-05-02T12:02:50.701Z,1.50
2023-05-02T12:05:33.701Z,1.63
2023-05-02T12:08:02.578Z,1.77
2023-05-02T12:10:42.523Z,2.78
2023-05-02T12:13:13.333Z,1.65
2023-05-02T12:15:41.950Z,1.30
2023-05-02T12:18:13.920Z,2.22
2023-05-02T12:20:45.260Z,2.45
2023-05-02T12:23:13.986Z,1.73
2023-05-02T12:25:42.827Z,1.60
2023-05-02T12:28:11.843Z,1.50
2023-05-02T12:30:41.533Z,1.55
2023-05-02T12:33:12.233Z,1.27
2023-05-02T12:35:43.367Z,1.83
2023-05-02T12:38:12.939Z,1.50
2023-05-02T12:40:41.442Z,1.60
2023-05-02T12:43:12.153Z,1.30
2023-05-02T12:45:40.674Z,1.83
2023-05-02T12:48:25.787Z,1.30
2023-05-02T12:50:56.461Z,1.52
2023-05-02T12:53:41.131Z,1.58
2023-05-02T12:56:10.458Z,1.38
2023-05-02T12:58:45.790Z,1.77
2023-05-02T13:01:15.132Z,1.48
2023-05-02T13:03:44.141Z,1.83
2023-05-02T13:06:14.075Z,1.67
2023-05-02T13:08:42.382Z,1.80
2023-05-02T13:11:10.622Z,1.50
2023-05-02T13:13:38.966Z,1.83
2023-05-02T13:16:08.130Z,1.70
2023-05-02T13:18:36.593Z,1.73
2023-05-02T13:21:07.579Z,1.42
2023-05-02T13:23:40.990Z,1.85
2023-05-02T13:26:09.611Z,1.73
2023-05-02T13:28:37.897Z,1.80
2023-05-02T13:31:06.500Z,1.77
2023-05-02T13:33:35.542Z,1.85
2023-05-02T13:36:03.775Z,1.73
2023-05-02T13:38:32.549Z,1.52
2023-05-02T13:41:09.636Z,1.60
2023-05-02T13:43:39.313Z,1.50
2023-05-02T13:46:07.850Z,1.67
2023-05-02T13:48:37.438Z,1.42
2023-05-02T13:51:15.215Z,1.75
2023-05-02T13:53:43.738Z,1.50
2023-05-02T13:56:13.380Z,2.10
2023-05-02T13:58:42.268Z,1.83
2023-05-02T14:01:10.820Z,1.58
2023-05-02T14:03:41.668Z,1.90
2023-05-02T14:06:10.083Z,1.90
2023-05-02T14:08:38.601Z,1.58
2023-05-02T14:11:07.449Z,2.17
2023-05-02T14:13:37.801Z,2.15
2023-05-02T14:16:06.648Z,1.92
2023-05-02T14:18:34.920Z,1.83
2023-05-02T14:21:05.886Z,2.20
2023-05-02T14:23:36.656Z,2.05
2023-05-02T14:26:04.911Z,2.13
2023-05-02T14:28:36.264Z,1.90
2023-05-02T14:31:09.401Z,2.53
2023-05-02T14:33:40.364Z,2.42
2023-05-02T14:36:09.215Z,1.95
2023-05-02T14:38:37.626Z,2.72
2023-05-02T14:41:06.966Z,2.10
2023-05-02T14:43:36.306Z,2.35
2023-05-02T14:46:04.821Z,2.45
2023-05-02T14:48:34.575Z,1.90
2023-05-02T14:51:04.789Z,2.17
2023-05-02T14:53:33.367Z,1.42
2023-05-02T14:56:01.848Z,1.80
2023-05-02T14:58:30.945Z,2.15
2023-05-02T15:01:01.877Z,1.70
2023-05-02T15:03:39.352Z,1.83
2023-05-02T15:06:23.296Z,2.42
2023-05-02T15:08:52.120Z,1.60
2023-05-02T15:11:20.350Z,1.40
2023-05-02T15:13:48.592Z,1.30
2023-05-02T15:16:17.408Z,1.80
2023-05-02T15:18:48.150Z,2.15
2023-05-02T15:21:17.896Z,1.52
2023-05-02T15:23:47.536Z,1.63
2023-05-02T15:26:21.286Z,1.52
2023-05-02T15:28:49.664Z,2.00
2023-05-02T15:31:17.921Z,1.98
2023-05-02T15:33:46.510Z,2.20
2023-05-02T15:36:15.915Z,1.90
2023-05-02T15:38:45.614Z,2.60
2023-05-02T15:41:18.500Z,1.98
2023-05-02T15:43:49.278Z,2.00
2023-05-02T15:46:17.630Z,2.47
2023-05-02T15:48:46.190Z,2.30
2023-05-02T15:51:16.986Z,1.70
2023-05-02T15:53:49.772Z,1.77
2023-05-02T15:56:18.071Z,1.73
2023-05-02T15:58:46.383Z,1.70
2023-05-02T16:01:14.713Z,1.83
2023-05-02T16:03:48.141Z,1.48
2023-05-02T16:06:17.586Z,2.22
2023-05-02T16:08:52.171Z,1.58
2023-05-02T16:11:21.020Z,1.63
2023-05-02T16:13:49.461Z,1.95
2023-05-02T16:16:20.166Z,1.23
2023-05-02T16:18:48.454Z,1.60
2023-05-02T16:21:17.032Z,1.40
2023-05-02T16:23:56.150Z,1.25
2023-05-02T16:26:24.571Z,1.48
2023-05-02T16:28:55.245Z,1.55
2023-05-02T16:31:26.129Z,1.52
2023-05-02T16:33:58.038Z,1.02
2023-05-02T16:36:29.883Z,1.35
2023-05-02T16:38:59.784Z,0.88
2023-05-02T16:41:28.533Z,1.30
2023-05-02T16:43:56.971Z,0.75
2023-05-02T16:46:25.388Z,1.17
2023-05-02T16:48:53.762Z,1.60
2023-05-02T16:51:22.693Z,0.90
2023-05-02T16:53:51.274Z,1.13
2023-05-02T16:56:21.443Z,1.20
2023-05-02T16:58:49.706Z,1.13
2023-05-02T17:01:18.409Z,1.08
2023-05-02T17:03:46.983Z,0.85
2023-05-02T17:06:15.956Z,1.00
2023-05-02T17:08:44.376Z,1.27
2023-05-02T17:11:13.326Z,0.90
2023-05-02T17:13:43.592Z,1.02
2023-05-02T17:16:12.230Z,0.85
2023-05-02T17:18:40.826Z,1.30
2023-05-02T17:21:09.194Z,1.20
2023-05-02T17:23:37.502Z,1.10
2023-05-02T17:26:14.462Z,1.20
2023-05-02T17:28:44.943Z,1.10
2023-05-02T17:31:14.086Z,0.80
2023-05-02T17:33:43.058Z,1.13
2023-05-02T17:36:11.714Z,1.55
2023-05-02T17:38:40.216Z,1.17
2023-05-02T17:41:08.667Z,1.25
2023-05-02T17:43:38.042Z,0.85
2023-05-02T17:46:10.240Z,0.63
2023-05-02T17:48:41.773Z,1.40
2023-05-02T17:51:11.835Z,1.00
2023-05-02T17:53:40.513Z,0.88
2023-05-02T17:56:09.145Z,0.68
2023-05-02T17:58:37.720Z,1.05
2023-05-02T18:01:11.021Z,1.33
2023-05-02T18:03:40.296Z,1.10
2023-05-02T18:06:09.191Z,1.20
2023-05-02T18:08:37.657Z,1.15
2023-05-02T18:11:06.330Z,0.90
2023-05-02T18:13:36.229Z,0.80
2023-05-02T18:16:08.669Z,1.10
2023-05-02T18:18:38.628Z,0.70
2023-05-02T18:21:07.139Z,1.40
2023-05-02T18:23:35.431Z,0.85
2023-05-02T18:26:03.837Z,1.10
2023-05-02T18:28:32.486Z,1.05
2023-05-02T18:31:04.389Z,1.02
2023-05-02T18:33:33.167Z,0.90
2023-05-02T18:36:03.213Z,0.80
2023-05-02T18:38:32.687Z,1.35
2023-05-02T18:41:01.685Z,1.20
2023-05-02T18:43:31.405Z,0.90
2023-05-02T18:45:59.877Z,1.30
2023-05-02T18:48:30.356Z,0.80
2023-05-02T18:51:01.542Z,1.20
2023-05-02T18:53:35.661Z,0.80
2023-05-02T18:56:08.557Z,1.20
2023-05-02T18:58:37.255Z,0.75
2023-05-02T19:01:13.156Z,1.27
2023-05-02T19:03:42.182Z,0.73
2023-05-02T19:06:10.895Z,1.02
2023-05-02T19:08:42.225Z,0.90
2023-05-02T19:11:15.398Z,0.93
2023-05-02T19:13:46.134Z,0.60
2023-05-02T19:16:15.092Z,0.75
2023-05-02T19:18:44.370Z,1.17
2023-05-02T19:21:13.628Z,0.80
2023-05-02T19:23:43.921Z,0.93
2023-05-02T19:26:12.993Z,1.27
2023-05-02T19:28:41.439Z,0.90
2023-05-02T19:31:12.738Z,1.25
2023-05-02T19:33:41.617Z,1.25
2023-05-02T19:36:12.494Z,1.20
2023-05-02T19:38:41.630Z,1.10
2023-05-02T19:41:11.350Z,1.42
2023-05-02T19:43:40.037Z,0.90
2023-05-02T19:46:08.469Z,1.10
2023-05-02T19:48:37.760Z,0.85
2023-05-02T19:51:06.555Z,0.80
2023-05-02T19:53:40.518Z,0.95
2023-05-02T19:56:11.325Z,0.68
2023-05-02T19:58:41.153Z,1.10
2023-05-02T20:01:11.976Z,0.90
2023-05-02T20:03:47.175Z,1.00
2023-05-02T20:06:17.966Z,0.80
2023-05-02T20:08:46.286Z,0.88
2023-05-02T20:11:14.582Z,0.80
2023-05-02T20:13:45.163Z,0.80
2023-05-02T20:16:19.211Z,0.70
2023-05-02T20:18:47.651Z,1.33
2023-05-02T20:21:20.345Z,0.80
2023-05-02T20:23:48.659Z,1.25
2023-05-02T20:26:21.325Z,0.95
2023-05-02T20:28:52.976Z,1.10
2023-05-02T20:31:26.046Z,0.93
2023-05-02T20:33:54.506Z,1.30
2023-05-02T20:36:25.116Z,1.13
2023-05-02T20:38:53.655Z,1.00
2023-05-02T20:41:23.840Z,0.68
2023-05-02T20:43:54.561Z,0.73
2023-05-02T20:46:25.505Z,0.90
2023-05-02T20:48:53.861Z,0.93
2023-05-02T20:51:22.407Z,0.77
2023-05-02T20:53:50.787Z,0.90
2023-05-02T20:56:19.161Z,0.95
2023-05-02T20:58:47.572Z,1.13
2023-05-02T21:01:19.684Z,0.85
2023-05-02T21:03:50.637Z,0.90
2023-05-02T21:06:22.377Z,1.00
2023-05-02T21:08:50.691Z,0.98
2023-05-02T21:11:21.833Z,1.10
2023-05-02T21:13:57.485Z,0.80
2023-05-02T21:16:30.067Z,1.20
2023-05-02T21:18:58.681Z,1.00
2023-05-02T21:21:26.958Z,1.00
2023-05-02T21:23:58.691Z,1.08
2023-05-02T21:26:27.216Z,1.15
2023-05-02T21:28:57.775Z,0.90
2023-05-02T21:31:27.562Z,0.90
2023-05-02T21:33:56.022Z,1.33
2023-05-02T21:36:24.442Z,1.25
2023-05-02T21:38:52.634Z,1.20
2023-05-02T21:41:21.286Z,1.23
2023-05-02T21:43:56.725Z,0.90
2023-05-02T21:46:25.135Z,0.73
2023-05-02T21:48:57.217Z,0.98
2023-05-02T21:51:25.495Z,1.17
2023-05-02T21:53:54.520Z,1.00
2023-05-02T21:56:25.544Z,0.95
2023-05-02T21:58:53.919Z,1.02
2023-05-02T22:01:24.829Z,1.00
2023-05-02T22:03:54.490Z,2.20
2023-05-02T22:06:25.368Z,0.90
2023-05-02T22:08:58.144Z,1.10
2023-05-02T22:11:31.818Z,1.30
2023-05-02T22:14:02.888Z,1.50
2023-05-02T22:16:31.472Z,1.67
2023-05-02T22:19:01.616Z,1.13
2023-05-02T22:21:35.228Z,1.42
2023-05-02T22:24:03.478Z,1.50
2023-05-02T22:26:31.866Z,1.30
2023-05-02T22:29:00.154Z,1.50
2023-05-02T22:31:28.803Z,1.60
2023-05-02T22:33:57.187Z,1.52
2023-05-02T22:36:27.726Z,1.30
2023-05-02T22:38:58.802Z,1.25
2023-05-02T22:41:30.165Z,1.23
2023-05-02T22:43:58.673Z,1.23
2023-05-02T22:46:29.999Z,1.48
2023-05-02T22:48:58.817Z,1.80
2023-05-02T22:51:28.794Z,1.23
2023-05-02T22:53:59.876Z,1.27
2023-05-02T22:56:28.754Z,1.48
2023-05-02T22:58:59.862Z,0.93
2023-05-02T23:01:34.509Z,1.52
2023-05-02T23:04:03.052Z,1.67
2023-05-02T23:06:33.148Z,1.85
2023-05-02T23:09:10.897Z,1.10
2023-05-02T23:11:41.784Z,1.40
2023-05-02T23:14:10.260Z,1.33
2023-05-02T23:16:41.083Z,1.50
2023-05-02T23:19:11.918Z,1.50
2023-05-02T23:21:42.173Z,1.50
2023-05-02T23:24:10.838Z,1.33
2023-05-02T23:26:41.436Z,1.60
2023-05-02T23:29:11.015Z,1.40
2023-05-02T23:31:39.522Z,1.80
2023-05-02T23:34:08.020Z,1.60
2023-05-02T23:36:36.784Z,1.45
2023-05-02T23:39:06.422Z,1.52
2023-05-02T23:41:35.424Z,1.52
2023-05-02T23:44:03.881Z,1.45
2023-05-02T23:46:32.257Z,1.92
2023-05-02T23:49:00.663Z,1.40
2023-05-02T23:51:31.961Z,1.50
2023-05-02T23:54:05.109Z,1.63
2023-05-02T23:56:37.366Z,1.40
2023-05-02T23:59:05.568Z,1.80
